ADDS METAR Data INFO
IDs: Format: Raw Decoded Include TAF

Data at: 0324 UTC 16 Dec 2017

KSIK 160315Z AUTO 21007KT 10SM CLR 03/00 A3013 RMK AO2
KSIK 160255Z AUTO 21009G14KT 10SM CLR 04/00 A3013 RMK AO2
KSIK 160235Z AUTO 21009KT 10SM CLR 05/00 A3013 RMK AO2
KSIK 160215Z AUTO 21008KT 10SM CLR 05/00 A3014 RMK AO2
KSIK 160155Z AUTO 21008KT 10SM CLR 05/00 A3013 RMK AO2
KSIK 160135Z AUTO 21008KT 10SM CLR 05/00 A3013 RMK AO2
KSIK 160115Z AUTO 21008KT 10SM CLR 05/00 A3012 RMK AO2
KSIK 160055Z AUTO 21008KT 10SM CLR 05/00 A3012 RMK AO2
KSIK 160035Z AUTO 21006KT 10SM CLR 05/00 A3012 RMK AO2
KSIK 160015Z AUTO 20006KT 10SM CLR 06/00 A3012 RMK AO2
KSIK 152355Z AUTO 20004KT 10SM SCT060 06/00 A3012 RMK AO2
KSIK 152335Z AUTO 21006KT 10SM SCT060 06/00 A3011 RMK AO2
KSIK 152315Z AUTO 21006KT 10SM BKN060 07/00 A3011 RMK AO2
KSIK 152255Z AUTO 21006KT 10SM BKN060 07/00 A3011 RMK AO2
KSIK 152235Z AUTO 21006KT 10SM OVC060 07/00 A3011 RMK AO2
KSIK 152215Z AUTO 21008KT 10SM BKN060 08/00 A3011 RMK AO2
KSIK 152155Z AUTO 23008KT 10SM BKN060 08/00 A3011 RMK AO2
KSIK 152135Z AUTO 22010G15KT 10SM BKN060 08/M01 A3012 RMK AO2
KSIK 152115Z AUTO 24013G16KT 10SM SCT045 BKN060 08/M01 A3012 RMK AO2
KSIK 152055Z AUTO 26012G15KT 10SM SCT049 BKN055 08/M01 A3012 RMK AO2
KSIK 152035Z AUTO 25011KT 10SM SCT049 09/M01 A3012 RMK AO2
KSIK 152015Z AUTO 26013G16KT 10SM CLR 08/M01 A3011 RMK AO2
KSIK 151955Z AUTO 25011G17KT 10SM CLR 08/M01 A3011 RMK AO2
KSIK 151935Z AUTO 25013KT 10SM CLR 08/M02 A3011 RMK AO2
KSIK 151915Z AUTO 25009G17KT 10SM CLR 08/M02 A3012 RMK AO2
KSIK 151855Z AUTO 27011KT 10SM CLR 08/M02 A3012 RMK AO2
KSIK 151835Z AUTO 24009KT 10SM CLR 07/M02 A3013 RMK AO2
KSIK 151815Z AUTO 22009KT 10SM CLR 07/M02 A3014 RMK AO2
KSIK 151755Z AUTO 23009G14KT 10SM CLR 06/M02 A3015 RMK AO2
KSIK 151735Z AUTO 22007KT 192V262 10SM CLR 06/M02 A3016 RMK AO2
KSIK 151715Z AUTO 23008G14KT 10SM CLR 06/M02 A3018 RMK AO2
KSIK 151655Z AUTO 20008KT 10SM CLR 05/M02 A3019 RMK AO2
KSIK 151635Z AUTO 23008KT 10SM CLR 05/M02 A3020 RMK AO2
KSIK 151615Z AUTO 21008KT 10SM CLR 04/M03 A3020 RMK AO2
KSIK 151555Z AUTO 23007KT 10SM CLR 03/M03 A3020 RMK AO2
KSIK 151535Z AUTO 22007KT 10SM CLR 03/M03 A3020 RMK AO2
KSIK 151515Z AUTO 23005KT 10SM CLR 02/M03 A3020 RMK AO2
KSIK 151455Z AUTO 22003KT 10SM CLR 02/M03 A3019 RMK AO2
KSIK 151435Z AUTO 22003KT 10SM SCT044 01/M03 A3019 RMK AO2
KSIK 151415Z AUTO 23003KT 10SM SCT040 BKN045 00/M03 A3020 RMK AO2
KSIK 151355Z AUTO 22003KT 10SM OVC036 01/M03 A3019 RMK AO2
KSIK 151335Z AUTO 23004KT 10SM OVC036 00/M03 A3020 RMK AO2
KSIK 151315Z AUTO 24003KT 10SM OVC036 00/M03 A3019 RMK AO2
KSIK 151255Z AUTO 00000KT 10SM OVC038 00/M03 A3018 RMK AO2
KSIK 151235Z AUTO 00000KT 10SM OVC038 00/M03 A3017 RMK AO2
KSIK 151215Z AUTO 00000KT 10SM OVC038 00/M03 A3016 RMK AO2
KSIK 151155Z AUTO 00000KT 10SM OVC038 00/M03 A3016 RMK AO2
KSIK 151135Z AUTO 00000KT 10SM OVC036 00/M03 A3014 RMK AO2
KSIK 151115Z AUTO 00000KT 10SM OVC036 00/M03 A3014 RMK AO2
KSIK 151055Z AUTO 00000KT 10SM OVC036 00/M03 A3015 RMK AO2
KSIK 151035Z AUTO 00000KT 10SM OVC036 00/M03 A3015 RMK AO2
KSIK 151015Z AUTO 00000KT 10SM OVC034 00/M03 A3014 RMK AO2
KSIK 150955Z AUTO 28004KT 10SM OVC034 00/M03 A3014 RMK AO2
KSIK 150935Z AUTO 00000KT 10SM OVC034 00/M03 A3014 RMK AO2
KSIK 150915Z AUTO 00000KT 10SM OVC036 00/M03 A3014 RMK AO2
KSIK 150855Z AUTO 00000KT 10SM OVC036 00/M03 A3015 RMK AO2
KSIK 150835Z AUTO 00000KT 10SM OVC036 00/M03 A3014 RMK AO2
KSIK 150815Z AUTO 00000KT 10SM OVC036 00/M03 A3014 RMK AO2
KSIK 150755Z AUTO 00000KT 10SM OVC036 00/M03 A3014 RMK AO2
KSIK 150735Z AUTO 00000KT 10SM OVC036 00/M03 A3014 RMK AO2
KSIK 150715Z AUTO 00000KT 10SM OVC038 00/M03 A3013 RMK AO2
KSIK 150655Z AUTO 00000KT 10SM OVC038 00/M03 A3014 RMK AO2
KSIK 150635Z AUTO 00000KT 10SM OVC040 00/M03 A3014 RMK AO2
KSIK 150615Z AUTO 00000KT 10SM OVC040 00/M03 A3014 RMK AO2
KSIK 150555Z AUTO 00000KT 10SM OVC040 00/M03 A3015 RMK AO2
KSIK 150535Z AUTO 00000KT 10SM OVC042 00/M03 A3015 RMK AO2
KSIK 150515Z AUTO 00000KT 10SM OVC042 00/M03 A3015 RMK AO2
KSIK 150455Z AUTO 00000KT 10SM OVC042 00/M03 A3016 RMK AO2
KSIK 150435Z AUTO 00000KT 10SM OVC044 00/M02 A3016 RMK AO2
KSIK 150415Z AUTO 00000KT 10SM OVC044 01/M03 A3016 RMK AO2
KSIK 150355Z AUTO 28004KT 10SM OVC044 01/M03 A3016 RMK AO2
KSIK 150335Z AUTO 00000KT 10SM OVC046 01/M03 A3016 RMK AO2
KSIK 150315Z AUTO 00000KT 10SM OVC046 01/M03 A3015 RMK AO2
KSIK 150255Z AUTO 00000KT 10SM OVC046 01/M03 A3014 RMK AO2
KSIK 150235Z AUTO 00000KT 10SM OVC046 01/M03 A3014 RMK AO2
KSIK 150215Z AUTO 00000KT 10SM OVC046 01/M03 A3014 RMK AO2
KSIK 150155Z AUTO 36004KT 10SM OVC046 01/M03 A3013 RMK AO2
KSIK 150135Z AUTO 35003KT 10SM OVC046 01/M03 A3013 RMK AO2
KSIK 150115Z AUTO 00000KT 10SM OVC048 01/M03 A3013 RMK AO2
KSIK 150055Z AUTO 03003KT 10SM OVC048 01/M03 A3012 RMK AO2
KSIK 150035Z AUTO 02005KT 10SM OVC048 01/M03 A3012 RMK AO2
KSIK 150015Z AUTO 05004KT 10SM OVC048 01/M03 A3011 RMK AO2
KSIK 142355Z AUTO 05003KT 10SM OVC048 01/M03 A3011 RMK AO2
KSIK 142335Z AUTO 03004KT 10SM OVC046 01/M03 A3010 RMK AO2
KSIK 142315Z AUTO 03004KT 10SM OVC046 02/M03 A3010 RMK AO2
KSIK 142255Z AUTO 03003KT 10SM OVC046 02/M03 A3010 RMK AO2
KSIK 142235Z AUTO 02005KT 10SM OVC044 02/M03 A3009 RMK AO2
KSIK 142215Z AUTO 03005KT 10SM OVC044 02/M03 A3009 RMK AO2
KSIK 142155Z AUTO 05005KT 10SM OVC042 02/M03 A3009 RMK AO2
KSIK 142135Z AUTO 02005KT 10SM OVC040 02/M03 A3010 RMK AO2
KSIK 142115Z AUTO 02007KT 10SM OVC040 02/M03 A3009 RMK AO2
KSIK 142055Z AUTO 01006KT 10SM OVC038 02/M03 A3008 RMK AO2
KSIK 142035Z AUTO 01006KT 10SM OVC036 02/M03 A3008 RMK AO2
KSIK 142015Z AUTO 02006KT 10SM OVC036 02/M03 A3008 RMK AO2
KSIK 141955Z AUTO 02006KT 10SM OVC036 02/M03 A3008 RMK AO2
KSIK 141935Z AUTO 03006KT 10SM OVC036 03/M03 A3007 RMK AO2
KSIK 141915Z AUTO 05006KT 10SM OVC036 03/M03 A3006 RMK AO2
KSIK 141855Z AUTO 02008KT 10SM OVC036 03/M03 A3007 RMK AO2
KSIK 141835Z AUTO 36007KT 10SM OVC036 03/M03 A3008 RMK AO2
KSIK 141815Z AUTO 36007KT 10SM OVC036 03/M03 A3008 RMK AO2
KSIK 141755Z AUTO 35007KT 10SM OVC036 03/M02 A3008 RMK AO2
KSIK 141735Z AUTO 02005KT 10SM OVC034 03/M02 A3008 RMK AO2
KSIK 141715Z AUTO 02007KT 10SM OVC034 03/M02 A3008 RMK AO2
KSIK 141655Z AUTO 02008KT 10SM OVC034 03/M02 A3009 RMK AO2
KSIK 141635Z AUTO 03005KT 10SM OVC034 03/M02 A3009 RMK AO2
KSIK 141615Z AUTO 03004KT 10SM OVC036 03/M02 A3010 RMK AO2
KSIK 141555Z AUTO 04005KT 10SM OVC036 03/M02 A3008 RMK AO2
KSIK 141535Z AUTO 03006KT 10SM OVC036 03/M02 A3007 RMK AO2